Evangeline, LA (70537)

2:33 PM CDT on April 28, 2015 (GMT -0500)
Jennings | | Change Station
CLOSE
Current Station
Airport
Location: Jennings,
Elevation: 23 ft
Nearby Weather Stations
Active Advisory: Flood Warning Active Notice: Local Storm Report

Elev 23 ft 30.24 °N, 92.67 °W | Updated 18 minutes ago

Overcast
Overcast
66 °F
Feels Like 66 °F
N
12
Wind Variable Wind from NNW

Today
High -- | Low -- °F
--% Chance of Precip.
Yesterday
High -- | Low -- °F
Precip. -- in
6:29 AM 7:45 PM
Waxing Gibbous, 76% visible
Pressure 29.85 in
Visibility 10.0 miles
Clouds Overcast 1400 ft
Dew Point 61 °F
Humidity 82%
Rainfall 0.00 in
Snow Depth Not available.
UV 3 out of 12
Pollen 6.80 out of 12
Air Quality Not available.
Flu Activity Sporadic
METAR K3R7 281915Z AUTO 34010KT 10SM OVC014 19/16 A2985 RMK AO2 T01900159

More Conditions Fewer Conditions

Pressure 29.85 in
Visibility 10.0 miles
Clouds Overcast 1400 ft
Dew Point 61 °F
Humidity 82%
Rainfall 0.00 in
Snow Depth Not available.
UV 3 out of 12
Pollen 6.80 out of 12
Air Quality Not available.
Flu Activity Sporadic
METAR K3R7 281915Z AUTO 34010KT 10SM OVC014 19/16 A2985 RMK AO2 T01900159

More Conditions Fewer Conditions

10-Day Weather Forecast

Almanac

Astronomy

Apr. 28, 2015 Rise Set
Actual Time
Civil Twilight
Nautical Twilight
Astronomical Twilight
Moon
Length of Visible Light
Length of Day
Tomorrow will be .
, % of the Moon is Illuminated

Today's Extremes

State Highs State Lows

Community

WunderPhotos

Upload Photos

1,817,739 photos uploaded!

WunderBlogs® & News

Nearby

Air Quality

  Air Quality AQ Index Pollutant
Not available.

Snow Depth

Station Depth Elevation

Earthquake Activity

City Distance Mag. Time & Date
Minimum magnitude displayed is 2.5.

Coastal Water Temperatures

Place Temperature

Stations

Nearby Weather Stations

Station Location Temp. Windchill Dew Point Humidity Wind Precip. Elev Updated Type
                   
Flood Warning
Statement as of 10:16 AM CDT on April 28, 2015

The Flood Warning continues for
the Mermentau river near Mermentau.
* Until Thursday evening... or until the warning is cancelled.
* At 9:15 am Tuesday the stage was 4.2 feet.
* Minor flooding is occurring and minor flooding is forecast.
* Flood stage is 4.0 feet.
* Forecast... the river will continue rising to near 4.3 feet by this
evening. The river will fall below flood stage Thursday morning.
* Impact... at stages near 4.0 feet... minor lowland flooding near the
river will occur.


Lat... Lon 3025 9266 3004 9276 3004 9260 3019 9254 3024 9255